createdAt,value
2023-05-06T00:02:21.996Z,65.80
2023-05-06T00:04:49.521Z,69.40
2023-05-06T00:07:17.070Z,56.60
2023-05-06T00:09:43.928Z,53.00
2023-05-06T00:12:11.369Z,55.50
2023-05-06T00:14:38.253Z,64.80
2023-05-06T00:17:05.203Z,64.80
2023-05-06T00:19:32.435Z,66.50
2023-05-06T00:21:59.700Z,67.90
2023-05-06T00:24:26.676Z,71.60
2023-05-06T00:26:53.793Z,69.40
2023-05-06T00:29:21.081Z,68.70
2023-05-06T00:31:48.032Z,68.00
2023-05-06T00:34:15.003Z,69.00
2023-05-06T00:36:43.020Z,66.60
2023-05-06T00:39:10.146Z,28.60
2023-05-06T00:41:37.472Z,15.10
2023-05-06T00:44:04.431Z,16.80
2023-05-06T00:46:31.458Z,11.40
2023-05-06T00:48:58.592Z,1.00
2023-05-06T00:51:26.778Z,1.00
2023-05-06T00:53:53.683Z,1.00
2023-05-06T00:56:20.943Z,1.30
2023-05-06T00:58:48.392Z,3.00
2023-05-06T01:01:15.784Z,7.20
2023-05-06T01:03:42.999Z,11.80
2023-05-06T01:06:24.437Z,15.00
2023-05-06T01:09:01.117Z,19.20
2023-05-06T01:11:49.495Z,19.10
2023-05-06T01:14:33.380Z,27.50
2023-05-06T01:17:06.357Z,26.60
2023-05-06T01:19:46.673Z,25.20
2023-05-06T01:22:13.867Z,26.60
2023-05-06T01:24:43.269Z,30.00
2023-05-06T01:27:11.744Z,32.40
2023-05-06T01:29:41.902Z,32.00
2023-05-06T01:32:33.149Z,32.30
2023-05-06T01:35:17.056Z,40.40
2023-05-06T01:37:51.573Z,42.50
2023-05-06T01:40:18.476Z,42.40
2023-05-06T01:42:49.430Z,45.40
2023-05-06T01:45:18.286Z,46.50
2023-05-06T01:47:47.027Z,52.30
2023-05-06T01:50:14.332Z,51.00
2023-05-06T01:52:41.304Z,48.80
2023-05-06T01:55:09.469Z,46.60
2023-05-06T01:57:36.694Z,53.80
2023-05-06T02:00:03.905Z,53.70
2023-05-06T02:02:30.819Z,56.70
2023-05-06T02:04:57.807Z,54.00
2023-05-06T02:07:24.657Z,36.20
2023-05-06T02:09:51.533Z,1.00
2023-05-06T02:12:18.392Z,1.00
2023-05-06T02:14:45.328Z,1.00
2023-05-06T02:17:12.239Z,1.00
2023-05-06T02:19:39.184Z,99.90
2023-05-06T02:22:06.200Z,99.90
2023-05-06T02:24:33.082Z,1.00
2023-05-06T02:27:00.020Z,99.90
2023-05-06T02:29:26.871Z,99.90
2023-05-06T02:31:53.840Z,1.00
2023-05-06T02:34:20.791Z,99.90
2023-05-06T02:36:47.658Z,99.90
2023-05-06T02:39:14.542Z,99.90
2023-05-06T02:41:41.392Z,99.90
2023-05-06T02:44:08.324Z,78.00
2023-05-06T02:46:35.315Z,93.50
2023-05-06T02:49:02.304Z,99.90
2023-05-06T02:51:29.187Z,99.90
2023-05-06T02:53:56.182Z,99.90
2023-05-06T02:56:23.126Z,99.90
2023-05-06T02:58:50.108Z,99.90
2023-05-06T03:01:17.065Z,99.90
2023-05-06T03:03:44.091Z,99.90
2023-05-06T03:06:11.008Z,1.00
2023-05-06T03:08:38.081Z,1.00
2023-05-06T03:11:06.769Z,99.90
2023-05-06T03:13:34.792Z,99.90
2023-05-06T03:16:02.628Z,99.90
2023-05-06T03:18:29.544Z,99.90
2023-05-06T03:20:56.504Z,99.90
2023-05-06T03:23:23.359Z,99.90
2023-05-06T03:25:50.264Z,1.00
2023-05-06T03:28:17.143Z,99.90
2023-05-06T03:30:44.009Z,99.90
2023-05-06T03:33:10.913Z,99.90
2023-05-06T03:35:37.926Z,99.90
2023-05-06T03:38:04.793Z,99.90
2023-05-06T03:40:32.112Z,99.90
2023-05-06T03:42:59.070Z,99.90
2023-05-06T03:45:27.448Z,99.90
2023-05-06T03:47:54.458Z,1.00
2023-05-06T03:50:21.297Z,99.90
2023-05-06T03:52:48.320Z,99.90
2023-05-06T03:55:15.230Z,99.90
2023-05-06T03:57:42.083Z,10.20
2023-05-06T04:00:09.611Z,99.90
2023-05-06T04:02:37.590Z,99.90
2023-05-06T04:05:04.832Z,10.70
2023-05-06T04:07:31.762Z,95.60
2023-05-06T04:09:58.642Z,1.00
2023-05-06T04:12:25.923Z,95.70
2023-05-06T04:14:53.016Z,1.00
2023-05-06T04:17:19.850Z,93.20
2023-05-06T04:19:47.411Z,99.90
2023-05-06T04:22:14.390Z,99.90
2023-05-06T04:24:45.704Z,99.90
2023-05-06T04:27:12.692Z,99.90
2023-05-06T04:29:39.587Z,99.90
2023-05-06T04:32:06.537Z,99.90
2023-05-06T04:34:36.341Z,99.90
2023-05-06T04:37:03.781Z,99.90
2023-05-06T04:39:32.061Z,99.90
2023-05-06T04:41:58.926Z,99.90
2023-05-06T04:44:26.040Z,99.90
2023-05-06T04:46:52.898Z,99.90
2023-05-06T04:49:20.014Z,99.90
2023-05-06T04:51:46.856Z,99.90
2023-05-06T04:54:13.779Z,99.90
2023-05-06T04:56:40.675Z,99.90
2023-05-06T04:59:07.700Z,99.90
2023-05-06T05:01:34.620Z,99.90
2023-05-06T05:04:01.556Z,99.90
2023-05-06T05:06:28.461Z,99.90
2023-05-06T05:08:55.611Z,99.90
2023-05-06T05:11:22.532Z,99.90
2023-05-06T05:13:49.565Z,99.90
2023-05-06T05:16:16.509Z,99.90
2023-05-06T05:18:43.527Z,99.90
2023-05-06T05:21:11.049Z,99.90
2023-05-06T05:23:38.004Z,99.90
2023-05-06T05:26:04.882Z,99.90
2023-05-06T05:28:32.276Z,99.90
2023-05-06T05:31:06.915Z,99.90
2023-05-06T05:33:35.467Z,99.90
2023-05-06T05:36:02.485Z,99.90
2023-05-06T05:38:29.418Z,99.90
2023-05-06T05:40:56.305Z,99.90
2023-05-06T05:43:26.017Z,99.90
2023-05-06T05:45:52.973Z,99.90
2023-05-06T05:48:19.843Z,99.90
2023-05-06T05:50:47.394Z,99.90
2023-05-06T05:53:14.310Z,99.90
2023-05-06T05:55:41.210Z,99.90
2023-05-06T05:58:09.855Z,99.90
2023-05-06T06:00:36.780Z,99.90
2023-05-06T06:03:03.704Z,99.90
2023-05-06T06:05:30.734Z,99.90
2023-05-06T06:07:58.837Z,99.90
2023-05-06T06:10:26.025Z,99.90
2023-05-06T06:12:53.040Z,99.90
2023-05-06T06:15:20.678Z,99.90
2023-05-06T06:17:47.802Z,99.90
2023-05-06T06:20:14.821Z,99.90
2023-05-06T06:22:41.700Z,99.90
2023-05-06T06:25:09.142Z,99.90
2023-05-06T06:27:39.189Z,99.90
2023-05-06T06:30:07.193Z,99.90
2023-05-06T06:32:34.134Z,99.90
2023-05-06T06:35:01.165Z,99.90
2023-05-06T06:37:28.099Z,99.90
2023-05-06T06:39:54.987Z,99.90
2023-05-06T06:42:21.929Z,99.90
2023-05-06T06:44:48.786Z,99.90
2023-05-06T06:47:15.779Z,99.90
2023-05-06T06:49:42.658Z,99.90
2023-05-06T06:52:09.748Z,99.90
2023-05-06T06:54:38.769Z,99.90
2023-05-06T06:57:07.110Z,99.90
2023-05-06T06:59:34.062Z,99.90
2023-05-06T07:02:01.026Z,99.90
2023-05-06T07:04:27.959Z,99.90
2023-05-06T07:06:54.880Z,99.90
2023-05-06T07:09:21.865Z,99.90
2023-05-06T07:11:49.276Z,99.90
2023-05-06T07:14:16.288Z,99.90
2023-05-06T07:16:44.624Z,99.90
2023-05-06T07:19:13.139Z,99.90
2023-05-06T07:21:40.003Z,99.90
2023-05-06T07:24:07.360Z,99.90
2023-05-06T07:26:37.869Z,99.90
2023-05-06T07:29:04.748Z,99.90
2023-05-06T07:31:34.891Z,99.90
2023-05-06T07:34:01.953Z,99.90
2023-05-06T07:36:29.125Z,99.90
2023-05-06T07:38:56.346Z,99.90
2023-05-06T07:41:23.250Z,99.90
2023-05-06T07:43:50.145Z,99.90
2023-05-06T07:46:17.080Z,99.90
2023-05-06T07:48:44.017Z,99.90
2023-05-06T07:51:11.554Z,99.90
2023-05-06T07:53:40.193Z,99.90
2023-05-06T07:56:07.317Z,99.90
2023-05-06T07:58:34.256Z,99.90
2023-05-06T08:01:01.271Z,99.90
2023-05-06T08:03:28.399Z,99.90
2023-05-06T08:05:55.557Z,99.90
2023-05-06T08:08:23.965Z,99.90
2023-05-06T08:10:50.962Z,99.90
2023-05-06T08:13:18.047Z,99.90
2023-05-06T08:15:45.340Z,99.90
2023-05-06T08:21:59.831Z,99.90
2023-05-06T08:28:13.967Z,99.90
2023-05-06T08:34:28.898Z,99.90
2023-05-06T08:36:56.106Z,99.90
2023-05-06T08:39:22.984Z,99.90
2023-05-06T08:41:52.442Z,99.90
2023-05-06T08:44:22.648Z,99.90
2023-05-06T08:46:49.836Z,99.90
2023-05-06T08:49:17.156Z,99.90
2023-05-06T08:51:44.803Z,99.90
2023-05-06T08:54:13.160Z,99.90
2023-05-06T08:56:47.518Z,99.90
2023-05-06T08:59:14.592Z,99.90
2023-05-06T09:01:41.615Z,99.90
2023-05-06T09:04:09.166Z,99.90
2023-05-06T09:06:36.298Z,99.90
2023-05-06T09:09:03.497Z,99.90
2023-05-06T09:11:30.823Z,99.90
2023-05-06T09:14:15.685Z,99.90
2023-05-06T09:16:44.847Z,99.90
2023-05-06T09:19:12.466Z,99.90
2023-05-06T09:21:44.599Z,99.90
2023-05-06T09:24:13.160Z,99.90
2023-05-06T09:26:42.421Z,99.90
2023-05-06T09:29:09.716Z,99.90
2023-05-06T09:31:47.341Z,99.90
2023-05-06T09:34:15.558Z,99.90
2023-05-06T09:36:42.729Z,99.90
2023-05-06T09:39:10.267Z,99.90
2023-05-06T09:41:37.540Z,99.90
2023-05-06T09:44:05.036Z,99.90
2023-05-06T09:46:33.081Z,99.90
2023-05-06T09:49:01.666Z,99.90
2023-05-06T09:51:28.672Z,99.90
2023-05-06T09:53:57.865Z,99.90
2023-05-06T09:56:25.894Z,99.90
2023-05-06T09:58:54.586Z,99.90
2023-05-06T10:01:32.786Z,99.90
2023-05-06T10:04:08.656Z,99.90
2023-05-06T10:06:39.826Z,99.90
2023-05-06T10:09:08.271Z,99.50
2023-05-06T10:11:36.288Z,99.60
2023-05-06T10:14:05.412Z,99.90
2023-05-06T10:16:35.880Z,99.90
2023-05-06T10:19:04.943Z,99.80
2023-05-06T10:21:35.782Z,99.90
2023-05-06T10:24:09.206Z,99.90
2023-05-06T10:26:40.966Z,99.90
2023-05-06T10:29:10.838Z,99.40
2023-05-06T10:31:42.940Z,98.80
2023-05-06T10:34:09.903Z,98.20
2023-05-06T10:36:38.664Z,96.90
2023-05-06T10:39:09.882Z,96.40
2023-05-06T10:41:37.477Z,97.10
2023-05-06T10:44:04.842Z,97.10
2023-05-06T10:46:32.769Z,97.40
2023-05-06T10:49:06.360Z,96.70
2023-05-06T10:51:34.493Z,97.60
2023-05-06T10:54:07.067Z,98.00
2023-05-06T10:56:54.249Z,98.40
2023-05-06T10:59:22.463Z,99.10
2023-05-06T11:02:18.911Z,99.90
2023-05-06T11:04:51.898Z,99.90
2023-05-06T11:07:23.754Z,99.90
2023-05-06T11:10:07.353Z,99.90
2023-05-06T11:12:55.955Z,99.90
2023-05-06T11:15:36.063Z,99.90
2023-05-06T11:18:29.412Z,99.90
2023-05-06T11:21:02.857Z,99.90
2023-05-06T11:23:42.402Z,99.90
2023-05-06T11:26:13.590Z,99.90
2023-05-06T11:28:43.745Z,99.90
2023-05-06T11:31:12.293Z,99.90
2023-05-06T11:33:52.758Z,99.90
2023-05-06T11:36:21.283Z,99.90
2023-05-06T11:38:51.483Z,99.90
2023-05-06T11:41:18.960Z,99.90
2023-05-06T11:43:53.552Z,99.90
2023-05-06T11:46:22.047Z,99.90
2023-05-06T11:48:50.432Z,99.90
2023-05-06T11:51:22.760Z,99.90
2023-05-06T11:53:49.817Z,99.90
2023-05-06T11:56:16.943Z,99.90
2023-05-06T11:58:44.215Z,99.90
2023-05-06T12:01:11.332Z,99.90
2023-05-06T12:03:38.408Z,99.90
2023-05-06T12:06:05.498Z,99.90
2023-05-06T12:08:34.088Z,99.90
2023-05-06T12:11:08.523Z,99.90
2023-05-06T12:13:37.132Z,99.90
2023-05-06T12:16:05.880Z,99.90
2023-05-06T12:18:33.284Z,99.90
2023-05-06T12:21:02.989Z,99.90
2023-05-06T12:23:30.066Z,99.90
2023-05-06T12:26:04.294Z,99.90
2023-05-06T12:28:32.832Z,99.90
2023-05-06T12:31:00.815Z,99.90
2023-05-06T12:33:28.030Z,99.90
2023-05-06T12:36:06.866Z,99.90
2023-05-06T12:38:33.816Z,99.90
2023-05-06T12:41:00.846Z,99.90
2023-05-06T12:43:31.551Z,99.90
2023-05-06T12:46:08.992Z,99.90
2023-05-06T12:48:36.082Z,99.90
2023-05-06T12:51:19.136Z,99.90
2023-05-06T12:53:46.304Z,99.90
2023-05-06T12:56:13.527Z,99.90
2023-05-06T12:58:40.546Z,99.90
2023-05-06T13:01:10.494Z,99.90
2023-05-06T13:03:38.839Z,99.90
2023-05-06T13:06:06.180Z,99.90
2023-05-06T13:08:33.978Z,99.90
2023-05-06T13:11:02.661Z,99.90
2023-05-06T13:13:29.638Z,99.90
2023-05-06T13:15:57.156Z,99.90
2023-05-06T13:18:24.022Z,99.90
2023-05-06T13:20:51.871Z,99.90
2023-05-06T13:23:19.671Z,99.90
2023-05-06T13:26:02.834Z,99.90
2023-05-06T13:28:32.182Z,99.90
2023-05-06T13:30:59.140Z,99.90
2023-05-06T13:33:26.109Z,99.90
2023-05-06T13:35:53.045Z,99.90
2023-05-06T13:38:19.936Z,99.90
2023-05-06T13:40:52.453Z,99.90
2023-05-06T13:43:20.205Z,99.90
2023-05-06T13:45:47.156Z,99.90
2023-05-06T13:48:14.570Z,99.90
2023-05-06T13:50:42.757Z,99.90
2023-05-06T13:53:09.765Z,99.90
2023-05-06T13:55:36.736Z,99.90
2023-05-06T13:58:05.576Z,99.90
2023-05-06T14:00:33.398Z,99.90
2023-05-06T14:03:00.801Z,99.90
2023-05-06T14:05:27.830Z,99.90
2023-05-06T14:07:54.783Z,99.90
2023-05-06T14:10:21.786Z,99.90
2023-05-06T14:12:48.655Z,99.90
2023-05-06T14:15:15.737Z,99.90
2023-05-06T14:17:43.018Z,99.90
2023-05-06T14:20:10.650Z,99.90
2023-05-06T14:22:41.109Z,99.90
2023-05-06T14:25:09.046Z,99.90
2023-05-06T14:27:36.350Z,99.90
2023-05-06T14:30:08.145Z,99.90
2023-05-06T14:32:35.859Z,99.90
2023-05-06T14:35:02.850Z,99.90
2023-05-06T14:37:29.908Z,99.90
2023-05-06T14:39:57.648Z,99.90
2023-05-06T14:42:24.553Z,99.90
2023-05-06T14:44:51.452Z,99.90
2023-05-06T14:47:18.458Z,99.90
2023-05-06T14:49:45.330Z,99.90
2023-05-06T14:52:12.234Z,99.90
2023-05-06T14:54:42.525Z,99.90
2023-05-06T14:57:09.906Z,99.90
2023-05-06T14:59:37.716Z,99.90
2023-05-06T15:02:07.170Z,99.90
2023-05-06T15:04:34.906Z,99.90
2023-05-06T15:07:02.302Z,99.90
2023-05-06T15:09:29.243Z,99.90
2023-05-06T15:11:56.228Z,99.90
2023-05-06T15:14:23.173Z,99.90
2023-05-06T15:16:50.140Z,99.90
2023-05-06T15:19:17.098Z,99.90
2023-05-06T15:21:44.145Z,99.90
2023-05-06T15:24:11.048Z,99.90
2023-05-06T15:26:37.897Z,99.90
2023-05-06T15:29:06.409Z,99.90
2023-05-06T15:31:39.008Z,99.90
2023-05-06T15:34:07.016Z,99.90
2023-05-06T15:36:33.929Z,99.90
2023-05-06T15:39:01.167Z,99.90
2023-05-06T15:41:30.782Z,99.90
2023-05-06T15:43:59.267Z,99.90
2023-05-06T15:46:27.772Z,99.90
2023-05-06T15:49:15.762Z,99.90
2023-05-06T15:51:41.999Z,99.90
2023-05-06T15:54:09.006Z,99.90
2023-05-06T15:56:40.674Z,99.90
2023-05-06T15:59:08.435Z,99.90
2023-05-06T16:02:16.582Z,99.90
2023-05-06T16:04:23.203Z,99.90
2023-05-06T16:06:50.702Z,99.90
2023-05-06T16:09:17.581Z,99.90
2023-05-06T16:11:44.666Z,99.90
2023-05-06T16:14:11.627Z,99.90
2023-05-06T16:16:38.686Z,99.90
2023-05-06T16:19:05.771Z,99.90
2023-05-06T16:21:32.696Z,99.90
2023-05-06T16:24:00.915Z,99.90
2023-05-06T16:26:27.800Z,99.90
2023-05-06T16:28:54.875Z,99.90
2023-05-06T16:31:21.902Z,99.90
2023-05-06T16:33:49.383Z,99.90
2023-05-06T16:36:16.305Z,99.90
2023-05-06T16:38:43.428Z,99.90
2023-05-06T16:41:10.299Z,99.90
2023-05-06T16:43:37.209Z,99.90
2023-05-06T16:46:04.294Z,99.90
2023-05-06T16:48:31.182Z,99.90
2023-05-06T16:50:58.554Z,99.90
2023-05-06T16:53:27.865Z,99.90
2023-05-06T16:55:55.871Z,99.90
2023-05-06T16:58:22.741Z,99.90
2023-05-06T17:00:52.787Z,99.90
2023-05-06T17:03:19.854Z,99.90
2023-05-06T17:05:47.135Z,99.90
2023-05-06T17:08:16.125Z,99.90
2023-05-06T17:10:43.892Z,99.90
2023-05-06T17:13:10.935Z,99.90
2023-05-06T17:15:38.053Z,99.90
2023-05-06T17:18:05.383Z,99.90
2023-05-06T17:20:35.692Z,99.90
2023-05-06T17:23:11.138Z,99.90
2023-05-06T17:25:38.048Z,99.90
2023-05-06T17:28:04.953Z,99.90
2023-05-06T17:30:31.952Z,99.90
2023-05-06T17:32:58.945Z,99.90
2023-05-06T17:35:26.253Z,99.90
2023-05-06T17:37:55.115Z,99.90
2023-05-06T17:40:22.180Z,99.90
2023-05-06T17:42:49.169Z,99.90
2023-05-06T17:45:16.278Z,99.90
2023-05-06T17:47:43.529Z,99.90
2023-05-06T17:50:11.132Z,99.90
2023-05-06T17:52:38.023Z,99.90
2023-05-06T17:55:16.163Z,99.90
2023-05-06T17:57:43.701Z,99.90
2023-05-06T18:00:11.617Z,99.90
2023-05-06T18:02:38.772Z,99.90
2023-05-06T18:05:06.672Z,99.90
2023-05-06T18:07:35.348Z,99.90
2023-05-06T18:10:02.397Z,99.90
2023-05-06T18:12:29.366Z,99.90
2023-05-06T18:14:57.300Z,1.00
2023-05-06T18:17:24.306Z,66.60
2023-05-06T18:19:51.248Z,99.90
2023-05-06T18:22:18.153Z,1.00
2023-05-06T18:24:45.034Z,99.90
2023-05-06T18:27:13.087Z,99.90
2023-05-06T18:29:41.421Z,84.10
2023-05-06T18:32:08.586Z,99.90
2023-05-06T18:34:35.793Z,99.90
2023-05-06T18:37:02.772Z,99.90
2023-05-06T18:39:29.663Z,1.00
2023-05-06T18:41:56.623Z,1.00
2023-05-06T18:44:23.573Z,99.90
2023-05-06T18:46:50.528Z,99.90
2023-05-06T18:49:17.448Z,1.00
2023-05-06T18:51:44.353Z,3.80
2023-05-06T18:54:12.873Z,10.50
2023-05-06T18:56:42.567Z,1.00
2023-05-06T18:59:09.812Z,90.70
2023-05-06T19:01:36.780Z,99.90
2023-05-06T19:04:04.285Z,99.90
2023-05-06T19:06:32.503Z,99.90
2023-05-06T19:08:59.545Z,99.90
2023-05-06T19:11:26.501Z,99.90
2023-05-06T19:13:53.425Z,99.90
2023-05-06T19:16:20.415Z,99.90
2023-05-06T19:18:47.949Z,99.90
2023-05-06T19:21:18.797Z,1.00
2023-05-06T19:23:45.871Z,1.00
2023-05-06T19:26:13.960Z,99.90
2023-05-06T19:28:40.988Z,99.90
2023-05-06T19:31:11.640Z,1.00
2023-05-06T19:33:39.234Z,1.00
2023-05-06T19:36:06.901Z,1.00
2023-05-06T19:38:34.519Z,1.00
2023-05-06T19:41:01.764Z,1.00
2023-05-06T19:43:28.884Z,1.00
2023-05-06T19:49:36.373Z,1.00
2023-05-06T19:55:51.626Z,1.00
2023-05-06T19:58:19.436Z,1.00
2023-05-06T20:00:46.353Z,1.00
2023-05-06T20:03:13.596Z,1.00
2023-05-06T20:05:41.320Z,1.00
2023-05-06T20:08:11.450Z,1.00
2023-05-06T20:10:38.531Z,1.00
2023-05-06T20:13:06.601Z,1.00
2023-05-06T20:15:33.844Z,1.00
2023-05-06T20:18:00.853Z,1.00
2023-05-06T20:20:34.293Z,1.00
2023-05-06T20:23:04.565Z,1.00
2023-05-06T20:25:31.867Z,1.00
2023-05-06T20:27:59.515Z,1.00
2023-05-06T20:30:27.021Z,1.00
2023-05-06T20:32:54.073Z,1.00
2023-05-06T20:35:21.063Z,1.00
2023-05-06T20:37:47.940Z,1.00
2023-05-06T20:40:15.442Z,1.00
2023-05-06T20:42:42.375Z,5.70
2023-05-06T20:45:10.072Z,7.80
2023-05-06T20:47:37.312Z,13.20
2023-05-06T20:50:04.495Z,14.60
2023-05-06T20:52:31.692Z,18.60
2023-05-06T20:54:58.632Z,22.20
2023-05-06T20:57:25.597Z,26.70
2023-05-06T20:59:52.829Z,29.40
2023-05-06T21:02:19.829Z,35.10
2023-05-06T21:04:46.894Z,37.00
2023-05-06T21:07:13.858Z,42.00
2023-05-06T21:09:40.872Z,38.60
2023-05-06T21:12:07.832Z,46.10
2023-05-06T21:14:34.807Z,50.00
2023-05-06T21:17:01.732Z,51.50
2023-05-06T21:19:28.743Z,54.30
2023-05-06T21:21:56.787Z,57.80
2023-05-06T21:24:23.671Z,59.80
2023-05-06T21:26:51.453Z,65.00
2023-05-06T21:29:18.382Z,61.70
2023-05-06T21:31:45.324Z,66.10
2023-05-06T21:34:12.277Z,66.80
2023-05-06T21:36:39.179Z,70.70
2023-05-06T21:39:10.833Z,77.40
2023-05-06T21:41:38.552Z,82.90
2023-05-06T21:44:06.798Z,84.20
2023-05-06T21:46:34.546Z,80.50
2023-05-06T21:49:01.647Z,86.60
2023-05-06T21:51:30.640Z,93.60
2023-05-06T21:53:57.478Z,90.50
2023-05-06T21:56:24.488Z,92.60
2023-05-06T21:58:52.476Z,91.30
2023-05-06T22:01:19.505Z,92.00
2023-05-06T22:03:46.702Z,92.90
2023-05-06T22:06:13.912Z,91.70
2023-05-06T22:08:41.838Z,94.90
2023-05-06T22:11:08.745Z,97.70
2023-05-06T22:13:35.797Z,96.30
2023-05-06T22:16:02.783Z,96.00
2023-05-06T22:18:30.192Z,96.10
2023-05-06T22:20:57.941Z,99.90
2023-05-06T22:23:25.672Z,99.90
2023-05-06T22:25:52.603Z,99.90
2023-05-06T22:28:20.087Z,99.90
2023-05-06T22:30:47.070Z,99.90
2023-05-06T22:33:14.043Z,99.90
2023-05-06T22:35:41.049Z,99.90
2023-05-06T22:38:08.671Z,99.90
2023-05-06T22:40:35.638Z,99.90
2023-05-06T22:43:02.523Z,99.90
2023-05-06T22:45:29.556Z,99.90
2023-05-06T22:47:56.952Z,99.90
2023-05-06T22:50:25.110Z,99.90
2023-05-06T22:52:52.213Z,99.90
2023-05-06T22:55:19.243Z,99.90
2023-05-06T22:57:49.900Z,99.90
2023-05-06T23:00:17.602Z,99.90
2023-05-06T23:02:44.712Z,99.90
2023-05-06T23:05:12.649Z,99.90
2023-05-06T23:07:39.900Z,99.90
2023-05-06T23:10:07.534Z,99.90
2023-05-06T23:12:34.951Z,99.90
2023-05-06T23:15:02.090Z,99.90
2023-05-06T23:17:28.982Z,99.90
2023-05-06T23:19:55.907Z,99.90
2023-05-06T23:22:22.969Z,99.90
2023-05-06T23:24:50.266Z,99.90
2023-05-06T23:27:17.172Z,99.90
2023-05-06T23:29:44.235Z,99.90
2023-05-06T23:32:11.096Z,99.90
2023-05-06T23:34:38.143Z,99.90
2023-05-06T23:37:05.097Z,99.90
2023-05-06T23:39:31.949Z,99.90
2023-05-06T23:42:00.909Z,99.90
2023-05-06T23:44:27.772Z,99.90
2023-05-06T23:46:54.790Z,99.90
2023-05-06T23:49:22.798Z,99.90
2023-05-06T23:51:49.667Z,99.90
2023-05-06T23:54:16.599Z,99.90
2023-05-06T23:56:43.528Z,99.90
2023-05-06T23:59:11.537Z,99.90
